sensor_id;sensor_type;location;lat;lon;timestamp;temperature;humidity
20141;DHT22;10231;47.702;9.826;2023-12-04T00:02:00;-6.60;99.90
20141;DHT22;10231;47.702;9.826;2023-12-04T00:04:26;-6.70;99.90
20141;DHT22;10231;47.702;9.826;2023-12-04T00:06:51;-6.60;99.90
20141;DHT22;10231;47.702;9.826;2023-12-04T00:09:17;-6.50;99.90
20141;DHT22;10231;47.702;9.826;2023-12-04T00:11:42;-6.70;99.90
20141;DHT22;10231;47.702;9.826;2023-12-04T00:14:08;-6.80;99.90
20141;DHT22;10231;47.702;9.826;2023-12-04T00:16:34;-6.80;99.90
20141;DHT22;10231;47.702;9.826;2023-12-04T00:19:03;-6.60;99.90
20141;DHT22;10231;47.702;9.826;2023-12-04T00:21:28;-6.70;99.90
20141;DHT22;10231;47.702;9.826;2023-12-04T00:23:54;-6.70;99.90
20141;DHT22;10231;47.702;9.826;2023-12-04T00:26:19;-7.00;99.90
20141;DHT22;10231;47.702;9.826;2023-12-04T00:28:45;-7.00;99.90
20141;DHT22;10231;47.702;9.826;2023-12-04T00:31:10;-7.00;99.90
20141;DHT22;10231;47.702;9.826;2023-12-04T00:33:36;-6.70;99.90
20141;DHT22;10231;47.702;9.826;2023-12-04T00:36:02;-6.80;99.90
20141;DHT22;10231;47.702;9.826;2023-12-04T00:38:27;-6.80;99.90
20141;DHT22;10231;47.702;9.826;2023-12-04T00:40:53;-7.00;99.90
20141;DHT22;10231;47.702;9.826;2023-12-04T00:43:18;-7.10;99.90
20141;DHT22;10231;47.702;9.826;2023-12-04T00:45:44;-7.10;99.90
20141;DHT22;10231;47.702;9.826;2023-12-04T00:48:10;-7.20;99.90
20141;DHT22;10231;47.702;9.826;2023-12-04T00:50:35;-7.20;99.90
20141;DHT22;10231;47.702;9.826;2023-12-04T00:53:01;-7.20;99.90
20141;DHT22;10231;47.702;9.826;2023-12-04T00:55:26;-7.40;99.90
20141;DHT22;10231;47.702;9.826;2023-12-04T00:57:52;-7.40;99.90
20141;DHT22;10231;47.702;9.826;2023-12-04T01:00:18;-7.40;99.90
20141;DHT22;10231;47.702;9.826;2023-12-04T01:02:43;-7.30;99.90
20141;DHT22;10231;47.702;9.826;2023-12-04T01:05:09;-7.30;99.90
20141;DHT22;10231;47.702;9.826;2023-12-04T01:07:35;-7.10;99.90
20141;DHT22;10231;47.702;9.826;2023-12-04T01:10:00;-7.20;99.90
20141;DHT22;10231;47.702;9.826;2023-12-04T01:12:26;-7.20;99.90
20141;DHT22;10231;47.702;9.826;2023-12-04T01:14:52;-7.30;99.90
20141;DHT22;10231;47.702;9.826;2023-12-04T01:17:18;-7.10;99.90
20141;DHT22;10231;47.702;9.826;2023-12-04T01:19:43;-7.10;99.90
20141;DHT22;10231;47.702;9.826;2023-12-04T01:22:09;-6.80;99.90
20141;DHT22;10231;47.702;9.826;2023-12-04T01:24:34;-7.10;99.90
20141;DHT22;10231;47.702;9.826;2023-12-04T01:27:00;-7.10;99.90
20141;DHT22;10231;47.702;9.826;2023-12-04T01:29:25;-7.00;99.90
20141;DHT22;10231;47.702;9.826;2023-12-04T01:31:51;-7.00;99.90
20141;DHT22;10231;47.702;9.826;2023-12-04T01:34:16;-7.00;99.90
20141;DHT22;10231;47.702;9.826;2023-12-04T01:36:42;-7.20;99.90
20141;DHT22;10231;47.702;9.826;2023-12-04T01:39:08;-7.10;99.90
20141;DHT22;10231;47.702;9.826;2023-12-04T01:41:33;-7.10;99.90
20141;DHT22;10231;47.702;9.826;2023-12-04T01:43:59;-7.10;99.90
20141;DHT22;10231;47.702;9.826;2023-12-04T01:46:24;-7.20;99.90
20141;DHT22;10231;47.702;9.826;2023-12-04T01:48:50;-7.30;99.90
20141;DHT22;10231;47.702;9.826;2023-12-04T01:51:17;-7.30;99.90
20141;DHT22;10231;47.702;9.826;2023-12-04T01:53:43;-7.40;99.90
20141;DHT22;10231;47.702;9.826;2023-12-04T01:56:09;-7.30;99.90
20141;DHT22;10231;47.702;9.826;2023-12-04T01:58:35;-7.30;99.90
20141;DHT22;10231;47.702;9.826;2023-12-04T02:01:02;-7.40;99.90
20141;DHT22;10231;47.702;9.826;2023-12-04T02:03:28;-7.40;99.90
20141;DHT22;10231;47.702;9.826;2023-12-04T02:05:54;-7.40;99.90
20141;DHT22;10231;47.702;9.826;2023-12-04T02:08:22;-7.20;99.90
20141;DHT22;10231;47.702;9.826;2023-12-04T02:10:48;-7.30;99.90
20141;DHT22;10231;47.702;9.826;2023-12-04T02:13:13;-7.30;99.90
20141;DHT22;10231;47.702;9.826;2023-12-04T02:15:40;-7.20;99.90
20141;DHT22;10231;47.702;9.826;2023-12-04T02:18:05;-7.30;99.90
20141;DHT22;10231;47.702;9.826;2023-12-04T02:20:34;-7.30;99.90
20141;DHT22;10231;47.702;9.826;2023-12-04T02:23:03;-7.40;99.90
20141;DHT22;10231;47.702;9.826;2023-12-04T02:25:29;-7.30;99.90
20141;DHT22;10231;47.702;9.826;2023-12-04T02:27:58;-7.40;99.90
20141;DHT22;10231;47.702;9.826;2023-12-04T02:30:24;-7.40;99.90
20141;DHT22;10231;47.702;9.826;2023-12-04T02:32:53;-7.30;99.90
20141;DHT22;10231;47.702;9.826;2023-12-04T02:35:22;-7.40;99.90
20141;DHT22;10231;47.702;9.826;2023-12-04T02:37:49;-7.30;99.90
20141;DHT22;10231;47.702;9.826;2023-12-04T02:40:15;-7.40;99.90
20141;DHT22;10231;47.702;9.826;2023-12-04T02:42:41;-7.30;99.90
20141;DHT22;10231;47.702;9.826;2023-12-04T02:45:07;-7.30;99.90
20141;DHT22;10231;47.702;9.826;2023-12-04T02:47:32;-7.30;99.90
20141;DHT22;10231;47.702;9.826;2023-12-04T02:49:58;-7.40;99.90
20141;DHT22;10231;47.702;9.826;2023-12-04T02:52:24;-7.40;99.90
20141;DHT22;10231;47.702;9.826;2023-12-04T02:54:49;-7.50;99.90
20141;DHT22;10231;47.702;9.826;2023-12-04T02:57:15;-7.50;99.90
20141;DHT22;10231;47.702;9.826;2023-12-04T02:59:41;-7.70;99.90
20141;DHT22;10231;47.702;9.826;2023-12-04T03:02:06;-7.70;99.90
20141;DHT22;10231;47.702;9.826;2023-12-04T03:04:32;-7.50;99.90
20141;DHT22;10231;47.702;9.826;2023-12-04T03:06:57;-7.70;99.90
20141;DHT22;10231;47.702;9.826;2023-12-04T03:09:23;-7.70;99.90
20141;DHT22;10231;47.702;9.826;2023-12-04T03:11:48;-7.70;99.90
20141;DHT22;10231;47.702;9.826;2023-12-04T03:14:14;-7.60;99.90
20141;DHT22;10231;47.702;9.826;2023-12-04T03:16:40;-7.80;99.90
20141;DHT22;10231;47.702;9.826;2023-12-04T03:19:05;-7.90;99.90
20141;DHT22;10231;47.702;9.826;2023-12-04T03:21:31;-8.10;99.90
20141;DHT22;10231;47.702;9.826;2023-12-04T03:23:56;-8.10;99.90
20141;DHT22;10231;47.702;9.826;2023-12-04T03:26:22;-8.00;99.90
20141;DHT22;10231;47.702;9.826;2023-12-04T03:28:48;-7.80;99.90
20141;DHT22;10231;47.702;9.826;2023-12-04T03:31:13;-7.80;99.90
20141;DHT22;10231;47.702;9.826;2023-12-04T03:33:39;-7.80;99.90
20141;DHT22;10231;47.702;9.826;2023-12-04T03:36:05;-7.80;99.90
20141;DHT22;10231;47.702;9.826;2023-12-04T03:38:30;-7.80;99.90
20141;DHT22;10231;47.702;9.826;2023-12-04T03:40:56;-7.80;99.90
20141;DHT22;10231;47.702;9.826;2023-12-04T03:43:21;-7.70;99.90
20141;DHT22;10231;47.702;9.826;2023-12-04T03:45:47;-7.70;99.90
20141;DHT22;10231;47.702;9.826;2023-12-04T03:48:13;-7.60;99.90
20141;DHT22;10231;47.702;9.826;2023-12-04T03:50:38;-7.60;99.90
20141;DHT22;10231;47.702;9.826;2023-12-04T03:53:04;-7.50;99.90
20141;DHT22;10231;47.702;9.826;2023-12-04T03:55:29;-7.60;99.90
20141;DHT22;10231;47.702;9.826;2023-12-04T03:57:55;-7.50;99.90
20141;DHT22;10231;47.702;9.826;2023-12-04T04:00:22;-7.50;99.90
20141;DHT22;10231;47.702;9.826;2023-12-04T04:02:48;-7.40;99.90
20141;DHT22;10231;47.702;9.826;2023-12-04T04:05:14;-7.30;99.90
20141;DHT22;10231;47.702;9.826;2023-12-04T04:07:40;-7.20;99.90
20141;DHT22;10231;47.702;9.826;2023-12-04T04:10:06;-7.20;99.90
20141;DHT22;10231;47.702;9.826;2023-12-04T04:12:32;-7.20;99.90
20141;DHT22;10231;47.702;9.826;2023-12-04T04:14:58;-7.10;99.90
20141;DHT22;10231;47.702;9.826;2023-12-04T04:17:23;-7.00;99.90
20141;DHT22;10231;47.702;9.826;2023-12-04T04:19:55;-6.90;99.90
20141;DHT22;10231;47.702;9.826;2023-12-04T04:22:21;-6.90;99.90
20141;DHT22;10231;47.702;9.826;2023-12-04T04:24:47;-7.10;99.90
20141;DHT22;10231;47.702;9.826;2023-12-04T04:27:13;-7.00;99.90
20141;DHT22;10231;47.702;9.826;2023-12-04T04:29:38;-7.10;99.90
20141;DHT22;10231;47.702;9.826;2023-12-04T04:32:04;-7.10;99.90
20141;DHT22;10231;47.702;9.826;2023-12-04T04:34:30;-6.90;99.90
20141;DHT22;10231;47.702;9.826;2023-12-04T04:36:56;-7.00;99.90
20141;DHT22;10231;47.702;9.826;2023-12-04T04:39:21;-6.90;99.90
20141;DHT22;10231;47.702;9.826;2023-12-04T04:41:47;-6.90;99.90
20141;DHT22;10231;47.702;9.826;2023-12-04T04:44:12;-6.80;99.90
20141;DHT22;10231;47.702;9.826;2023-12-04T04:46:38;-6.80;99.90
20141;DHT22;10231;47.702;9.826;2023-12-04T04:49:03;-6.80;99.90
20141;DHT22;10231;47.702;9.826;2023-12-04T04:51:32;-6.70;99.90
20141;DHT22;10231;47.702;9.826;2023-12-04T04:53:59;-6.70;99.90
20141;DHT22;10231;47.702;9.826;2023-12-04T04:56:24;-6.80;99.90
20141;DHT22;10231;47.702;9.826;2023-12-04T04:58:50;-6.70;99.90
20141;DHT22;10231;47.702;9.826;2023-12-04T05:01:15;-6.70;99.90
20141;DHT22;10231;47.702;9.826;2023-12-04T05:03:41;-6.60;99.90
20141;DHT22;10231;47.702;9.826;2023-12-04T05:06:07;-6.60;99.90
20141;DHT22;10231;47.702;9.826;2023-12-04T05:08:32;-6.50;99.90
20141;DHT22;10231;47.702;9.826;2023-12-04T05:10:58;-6.50;99.90
20141;DHT22;10231;47.702;9.826;2023-12-04T05:13:23;-6.40;99.90
20141;DHT22;10231;47.702;9.826;2023-12-04T05:15:49;-6.50;99.90
20141;DHT22;10231;47.702;9.826;2023-12-04T05:18:14;-6.50;99.90
20141;DHT22;10231;47.702;9.826;2023-12-04T05:20:40;-6.40;99.90
20141;DHT22;10231;47.702;9.826;2023-12-04T05:23:06;-6.40;99.90
20141;DHT22;10231;47.702;9.826;2023-12-04T05:25:31;-6.40;99.90
20141;DHT22;10231;47.702;9.826;2023-12-04T05:27:57;-6.40;99.90
20141;DHT22;10231;47.702;9.826;2023-12-04T05:30:22;-6.40;99.90
20141;DHT22;10231;47.702;9.826;2023-12-04T05:32:48;-6.40;99.90
20141;DHT22;10231;47.702;9.826;2023-12-04T05:35:15;-6.30;99.90
20141;DHT22;10231;47.702;9.826;2023-12-04T05:37:42;-6.50;99.90
20141;DHT22;10231;47.702;9.826;2023-12-04T05:40:08;-6.50;99.90
20141;DHT22;10231;47.702;9.826;2023-12-04T05:42:33;-6.30;99.90
20141;DHT22;10231;47.702;9.826;2023-12-04T05:44:59;-6.20;99.90
20141;DHT22;10231;47.702;9.826;2023-12-04T05:47:26;-6.40;99.90
20141;DHT22;10231;47.702;9.826;2023-12-04T05:49:51;-6.40;99.90
20141;DHT22;10231;47.702;9.826;2023-12-04T05:52:17;-6.30;99.90
20141;DHT22;10231;47.702;9.826;2023-12-04T05:54:42;-6.30;99.90
20141;DHT22;10231;47.702;9.826;2023-12-04T05:57:08;-6.20;99.90
20141;DHT22;10231;47.702;9.826;2023-12-04T05:59:33;-6.00;99.90
20141;DHT22;10231;47.702;9.826;2023-12-04T06:01:59;-6.00;99.90
20141;DHT22;10231;47.702;9.826;2023-12-04T06:04:25;-6.10;99.90
20141;DHT22;10231;47.702;9.826;2023-12-04T06:06:50;-6.10;99.90
20141;DHT22;10231;47.702;9.826;2023-12-04T06:09:16;-6.00;99.90
20141;DHT22;10231;47.702;9.826;2023-12-04T06:11:42;-5.90;99.90
20141;DHT22;10231;47.702;9.826;2023-12-04T06:14:08;-5.90;99.90
20141;DHT22;10231;47.702;9.826;2023-12-04T06:16:33;-5.90;99.90
20141;DHT22;10231;47.702;9.826;2023-12-04T06:18:59;-6.00;99.90
20141;DHT22;10231;47.702;9.826;2023-12-04T06:21:24;-6.00;99.90
20141;DHT22;10231;47.702;9.826;2023-12-04T06:23:50;-5.90;99.90
20141;DHT22;10231;47.702;9.826;2023-12-04T06:26:16;-5.80;99.90
20141;DHT22;10231;47.702;9.826;2023-12-04T06:28:43;-5.90;99.90
20141;DHT22;10231;47.702;9.826;2023-12-04T06:31:09;-5.90;99.90
20141;DHT22;10231;47.702;9.826;2023-12-04T06:33:35;-5.90;99.90
20141;DHT22;10231;47.702;9.826;2023-12-04T06:36:01;-5.80;99.90
20141;DHT22;10231;47.702;9.826;2023-12-04T06:38:28;-5.80;99.90
20141;DHT22;10231;47.702;9.826;2023-12-04T06:40:57;-5.80;99.90
20141;DHT22;10231;47.702;9.826;2023-12-04T06:43:23;-5.80;99.90
20141;DHT22;10231;47.702;9.826;2023-12-04T06:45:49;-5.70;99.90
20141;DHT22;10231;47.702;9.826;2023-12-04T06:48:15;-5.70;99.90
20141;DHT22;10231;47.702;9.826;2023-12-04T06:50:41;-5.60;99.90
20141;DHT22;10231;47.702;9.826;2023-12-04T06:53:06;-5.60;99.90
20141;DHT22;10231;47.702;9.826;2023-12-04T06:55:32;-5.60;99.90
20141;DHT22;10231;47.702;9.826;2023-12-04T06:57:58;-5.60;99.90
20141;DHT22;10231;47.702;9.826;2023-12-04T07:00:23;-5.60;99.90
20141;DHT22;10231;47.702;9.826;2023-12-04T07:02:49;-5.70;99.90
20141;DHT22;10231;47.702;9.826;2023-12-04T07:05:15;-5.60;99.90
20141;DHT22;10231;47.702;9.826;2023-12-04T07:07:41;-5.70;99.90
20141;DHT22;10231;47.702;9.826;2023-12-04T07:10:07;-5.70;99.90
20141;DHT22;10231;47.702;9.826;2023-12-04T07:12:33;-5.70;99.90
20141;DHT22;10231;47.702;9.826;2023-12-04T07:14:58;-5.60;99.90
20141;DHT22;10231;47.702;9.826;2023-12-04T07:17:24;-5.50;99.90
20141;DHT22;10231;47.702;9.826;2023-12-04T07:19:50;-5.50;99.90
20141;DHT22;10231;47.702;9.826;2023-12-04T07:22:15;-5.40;99.90
20141;DHT22;10231;47.702;9.826;2023-12-04T07:24:41;-5.40;99.90
20141;DHT22;10231;47.702;9.826;2023-12-04T07:27:06;-5.40;99.90
20141;DHT22;10231;47.702;9.826;2023-12-04T07:29:32;-5.30;99.90
20141;DHT22;10231;47.702;9.826;2023-12-04T07:31:57;-5.40;99.90
20141;DHT22;10231;47.702;9.826;2023-12-04T07:34:24;-5.40;99.90
20141;DHT22;10231;47.702;9.826;2023-12-04T07:36:49;-5.40;99.90
20141;DHT22;10231;47.702;9.826;2023-12-04T07:39:16;-5.30;99.90
20141;DHT22;10231;47.702;9.826;2023-12-04T07:41:41;-5.40;99.90
20141;DHT22;10231;47.702;9.826;2023-12-04T07:44:07;-5.30;99.90
20141;DHT22;10231;47.702;9.826;2023-12-04T07:46:33;-5.40;99.90
20141;DHT22;10231;47.702;9.826;2023-12-04T07:48:59;-5.40;99.90
20141;DHT22;10231;47.702;9.826;2023-12-04T07:51:24;-5.40;99.90
20141;DHT22;10231;47.702;9.826;2023-12-04T07:53:50;-5.40;99.90
20141;DHT22;10231;47.702;9.826;2023-12-04T07:56:15;-5.30;99.90
20141;DHT22;10231;47.702;9.826;2023-12-04T07:58:41;-5.30;99.90
20141;DHT22;10231;47.702;9.826;2023-12-04T08:01:07;-5.20;99.90
20141;DHT22;10231;47.702;9.826;2023-12-04T08:03:33;-5.10;99.90
20141;DHT22;10231;47.702;9.826;2023-12-04T08:05:59;-5.20;99.90
20141;DHT22;10231;47.702;9.826;2023-12-04T08:08:25;-5.20;99.90
20141;DHT22;10231;47.702;9.826;2023-12-04T08:10:50;-5.30;99.90
20141;DHT22;10231;47.702;9.826;2023-12-04T08:13:16;-5.20;99.90
20141;DHT22;10231;47.702;9.826;2023-12-04T08:15:42;-5.20;99.90
20141;DHT22;10231;47.702;9.826;2023-12-04T08:18:07;-5.10;99.90
20141;DHT22;10231;47.702;9.826;2023-12-04T08:20:33;-5.00;99.90
20141;DHT22;10231;47.702;9.826;2023-12-04T08:22:58;-5.10;99.90
20141;DHT22;10231;47.702;9.826;2023-12-04T08:25:24;-5.00;99.90
20141;DHT22;10231;47.702;9.826;2023-12-04T08:27:49;-4.90;99.90
20141;DHT22;10231;47.702;9.826;2023-12-04T08:30:16;-4.90;99.90
20141;DHT22;10231;47.702;9.826;2023-12-04T08:32:41;-4.70;99.90
20141;DHT22;10231;47.702;9.826;2023-12-04T08:35:07;-4.70;99.90
20141;DHT22;10231;47.702;9.826;2023-12-04T08:37:33;-4.80;99.90
20141;DHT22;10231;47.702;9.826;2023-12-04T08:39:58;-4.80;99.90
20141;DHT22;10231;47.702;9.826;2023-12-04T08:42:24;-4.80;99.90
20141;DHT22;10231;47.702;9.826;2023-12-04T08:44:49;-4.60;99.90
20141;DHT22;10231;47.702;9.826;2023-12-04T08:47:15;-4.50;99.90
20141;DHT22;10231;47.702;9.826;2023-12-04T08:49:41;-4.40;99.90
20141;DHT22;10231;47.702;9.826;2023-12-04T08:52:07;-4.40;99.90
20141;DHT22;10231;47.702;9.826;2023-12-04T08:54:33;-4.20;99.90
20141;DHT22;10231;47.702;9.826;2023-12-04T08:56:58;-4.20;99.90
20141;DHT22;10231;47.702;9.826;2023-12-04T08:59:24;-4.20;99.90
20141;DHT22;10231;47.702;9.826;2023-12-04T09:01:49;-4.40;99.90
20141;DHT22;10231;47.702;9.826;2023-12-04T09:04:15;-4.30;99.90
20141;DHT22;10231;47.702;9.826;2023-12-04T09:06:40;-4.30;99.90
20141;DHT22;10231;47.702;9.826;2023-12-04T09:09:06;-4.20;99.90
20141;DHT22;10231;47.702;9.826;2023-12-04T09:11:31;-4.00;99.90
20141;DHT22;10231;47.702;9.826;2023-12-04T09:13:57;-3.90;99.90
20141;DHT22;10231;47.702;9.826;2023-12-04T09:16:23;-3.80;99.90
20141;DHT22;10231;47.702;9.826;2023-12-04T09:18:48;-3.80;99.90
20141;DHT22;10231;47.702;9.826;2023-12-04T09:21:14;-3.60;99.90
20141;DHT22;10231;47.702;9.826;2023-12-04T09:23:40;-3.50;99.90
20141;DHT22;10231;47.702;9.826;2023-12-04T09:26:05;-3.50;99.90
20141;DHT22;10231;47.702;9.826;2023-12-04T09:28:31;-3.40;99.90
20141;DHT22;10231;47.702;9.826;2023-12-04T09:30:56;-3.40;99.90
20141;DHT22;10231;47.702;9.826;2023-12-04T09:33:22;-3.40;99.90
20141;DHT22;10231;47.702;9.826;2023-12-04T09:35:47;-3.40;99.90
20141;DHT22;10231;47.702;9.826;2023-12-04T09:38:13;-3.50;99.90
20141;DHT22;10231;47.702;9.826;2023-12-04T09:40:38;-3.50;99.90
20141;DHT22;10231;47.702;9.826;2023-12-04T09:43:06;-3.50;99.90
20141;DHT22;10231;47.702;9.826;2023-12-04T09:45:32;-3.40;99.90
20141;DHT22;10231;47.702;9.826;2023-12-04T09:47:58;-3.50;99.90
20141;DHT22;10231;47.702;9.826;2023-12-04T09:50:24;-3.40;99.90
20141;DHT22;10231;47.702;9.826;2023-12-04T09:52:50;-3.40;99.90
20141;DHT22;10231;47.702;9.826;2023-12-04T09:55:17;-3.30;99.90
20141;DHT22;10231;47.702;9.826;2023-12-04T09:57:44;-3.30;99.90
20141;DHT22;10231;47.702;9.826;2023-12-04T10:00:12;-3.20;99.90
20141;DHT22;10231;47.702;9.826;2023-12-04T10:02:40;-3.20;99.90
20141;DHT22;10231;47.702;9.826;2023-12-04T10:05:07;-3.20;99.90
20141;DHT22;10231;47.702;9.826;2023-12-04T10:07:32;-3.10;99.90
20141;DHT22;10231;47.702;9.826;2023-12-04T10:09:58;-3.00;99.90
20141;DHT22;10231;47.702;9.826;2023-12-04T10:12:25;-2.90;99.90
20141;DHT22;10231;47.702;9.826;2023-12-04T10:15:12;-2.90;99.90
20141;DHT22;10231;47.702;9.826;2023-12-04T10:17:39;-2.90;99.90
20141;DHT22;10231;47.702;9.826;2023-12-04T10:20:12;-3.00;99.90
20141;DHT22;10231;47.702;9.826;2023-12-04T10:22:58;-3.20;99.90
20141;DHT22;10231;47.702;9.826;2023-12-04T10:25:26;-3.30;99.90
20141;DHT22;10231;47.702;9.826;2023-12-04T10:27:53;-3.20;99.90
20141;DHT22;10231;47.702;9.826;2023-12-04T10:30:24;-3.10;99.90
20141;DHT22;10231;47.702;9.826;2023-12-04T10:32:57;-3.10;99.90
20141;DHT22;10231;47.702;9.826;2023-12-04T10:35:29;-3.00;99.90
20141;DHT22;10231;47.702;9.826;2023-12-04T10:37:58;-2.90;99.90
20141;DHT22;10231;47.702;9.826;2023-12-04T10:40:29;-2.80;99.90
20141;DHT22;10231;47.702;9.826;2023-12-04T10:43:17;-2.80;99.90
20141;DHT22;10231;47.702;9.826;2023-12-04T10:45:44;-2.80;99.90
20141;DHT22;10231;47.702;9.826;2023-12-04T10:48:11;-2.60;99.90
20141;DHT22;10231;47.702;9.826;2023-12-04T10:50:40;-2.60;99.90
20141;DHT22;10231;47.702;9.826;2023-12-04T10:53:09;-2.60;99.90
20141;DHT22;10231;47.702;9.826;2023-12-04T10:55:36;-2.60;99.90
20141;DHT22;10231;47.702;9.826;2023-12-04T10:58:08;-2.60;99.90
20141;DHT22;10231;47.702;9.826;2023-12-04T11:03:09;-2.40;99.90
20141;DHT22;10231;47.702;9.826;2023-12-04T11:05:39;-2.30;99.90
20141;DHT22;10231;47.702;9.826;2023-12-04T11:08:06;-2.20;99.90
20141;DHT22;10231;47.702;9.826;2023-12-04T11:10:33;-2.10;99.90
20141;DHT22;10231;47.702;9.826;2023-12-04T11:13:40;-1.90;99.90
20141;DHT22;10231;47.702;9.826;2023-12-04T11:16:20;-1.90;99.90
20141;DHT22;10231;47.702;9.826;2023-12-04T11:18:51;-1.80;99.90
20141;DHT22;10231;47.702;9.826;2023-12-04T11:21:20;-1.90;99.90
20141;DHT22;10231;47.702;9.826;2023-12-04T11:23:47;-1.80;99.90
20141;DHT22;10231;47.702;9.826;2023-12-04T11:26:13;-1.80;99.90
20141;DHT22;10231;47.702;9.826;2023-12-04T11:28:40;-1.90;99.90
20141;DHT22;10231;47.702;9.826;2023-12-04T11:31:06;-1.90;99.90
20141;DHT22;10231;47.702;9.826;2023-12-04T11:33:38;-1.80;99.90
20141;DHT22;10231;47.702;9.826;2023-12-04T11:36:08;-1.70;99.90
20141;DHT22;10231;47.702;9.826;2023-12-04T11:38:35;-1.70;99.90
20141;DHT22;10231;47.702;9.826;2023-12-04T11:41:30;-1.60;99.90
20141;DHT22;10231;47.702;9.826;2023-12-04T11:43:56;-1.60;99.90
20141;DHT22;10231;47.702;9.826;2023-12-04T11:46:23;-1.60;99.90
20141;DHT22;10231;47.702;9.826;2023-12-04T11:48:49;-1.50;99.90
20141;DHT22;10231;47.702;9.826;2023-12-04T11:54:04;-1.30;99.90
20141;DHT22;10231;47.702;9.826;2023-12-04T11:56:30;-1.40;99.90
20141;DHT22;10231;47.702;9.826;2023-12-04T11:59:03;-1.50;99.90
20141;DHT22;10231;47.702;9.826;2023-12-04T12:01:36;-1.50;99.90
20141;DHT22;10231;47.702;9.826;2023-12-04T12:04:05;-1.50;99.90
20141;DHT22;10231;47.702;9.826;2023-12-04T12:06:31;-1.40;99.90
20141;DHT22;10231;47.702;9.826;2023-12-04T12:08:57;-1.30;99.90
20141;DHT22;10231;47.702;9.826;2023-12-04T12:11:26;-1.20;99.90
20141;DHT22;10231;47.702;9.826;2023-12-04T12:13:54;-1.30;99.90
20141;DHT22;10231;47.702;9.826;2023-12-04T12:16:20;-1.10;99.90
20141;DHT22;10231;47.702;9.826;2023-12-04T12:18:46;-1.00;99.90
20141;DHT22;10231;47.702;9.826;2023-12-04T12:21:12;-1.00;99.90
20141;DHT22;10231;47.702;9.826;2023-12-04T12:23:38;-1.00;99.90
20141;DHT22;10231;47.702;9.826;2023-12-04T12:26:04;-1.00;99.90
20141;DHT22;10231;47.702;9.826;2023-12-04T12:28:29;-0.90;99.90
20141;DHT22;10231;47.702;9.826;2023-12-04T12:30:55;-0.80;99.90
20141;DHT22;10231;47.702;9.826;2023-12-04T12:33:21;-0.80;99.90
20141;DHT22;10231;47.702;9.826;2023-12-04T12:35:48;-0.80;99.90
20141;DHT22;10231;47.702;9.826;2023-12-04T12:38:14;-0.70;99.90
20141;DHT22;10231;47.702;9.826;2023-12-04T12:40:41;-0.70;99.90
20141;DHT22;10231;47.702;9.826;2023-12-04T12:43:07;-0.60;99.90
20141;DHT22;10231;47.702;9.826;2023-12-04T12:45:43;-0.60;99.90
20141;DHT22;10231;47.702;9.826;2023-12-04T12:48:16;-0.60;99.90
20141;DHT22;10231;47.702;9.826;2023-12-04T12:50:46;-0.70;99.90
20141;DHT22;10231;47.702;9.826;2023-12-04T12:53:11;-0.70;99.90
20141;DHT22;10231;47.702;9.826;2023-12-04T12:55:40;-0.70;99.90
20141;DHT22;10231;47.702;9.826;2023-12-04T12:58:06;-0.70;99.90
20141;DHT22;10231;47.702;9.826;2023-12-04T13:00:34;-0.50;99.90
20141;DHT22;10231;47.702;9.826;2023-12-04T13:03:00;-0.60;99.90
20141;DHT22;10231;47.702;9.826;2023-12-04T13:05:26;-0.50;99.90
20141;DHT22;10231;47.702;9.826;2023-12-04T13:07:51;-0.50;99.90
20141;DHT22;10231;47.702;9.826;2023-12-04T13:10:17;-0.50;99.90
20141;DHT22;10231;47.702;9.826;2023-12-04T13:12:43;-0.50;99.90
20141;DHT22;10231;47.702;9.826;2023-12-04T13:15:08;-0.70;99.90
20141;DHT22;10231;47.702;9.826;2023-12-04T13:17:36;-0.90;99.90
20141;DHT22;10231;47.702;9.826;2023-12-04T13:20:01;-1.00;99.90
20141;DHT22;10231;47.702;9.826;2023-12-04T13:22:29;-1.00;99.90
20141;DHT22;10231;47.702;9.826;2023-12-04T13:24:55;-0.90;99.90
20141;DHT22;10231;47.702;9.826;2023-12-04T13:27:20;-0.70;99.90
20141;DHT22;10231;47.702;9.826;2023-12-04T13:29:46;-0.60;99.90
20141;DHT22;10231;47.702;9.826;2023-12-04T13:32:15;-0.50;99.90
20141;DHT22;10231;47.702;9.826;2023-12-04T13:34:41;-0.50;99.90
20141;DHT22;10231;47.702;9.826;2023-12-04T13:37:06;-0.50;99.90
20141;DHT22;10231;47.702;9.826;2023-12-04T13:39:32;-0.30;99.90
20141;DHT22;10231;47.702;9.826;2023-12-04T13:42:14;0.10;99.90
20141;DHT22;10231;47.702;9.826;2023-12-04T13:44:59;0.80;99.90
20141;DHT22;10231;47.702;9.826;2023-12-04T13:47:24;1.50;99.90
20141;DHT22;10231;47.702;9.826;2023-12-04T13:49:50;1.70;99.90
20141;DHT22;10231;47.702;9.826;2023-12-04T13:52:15;1.50;99.90
20141;DHT22;10231;47.702;9.826;2023-12-04T13:54:45;1.20;99.90
20141;DHT22;10231;47.702;9.826;2023-12-04T13:57:13;0.80;99.90
20141;DHT22;10231;47.702;9.826;2023-12-04T13:59:46;0.50;99.90
20141;DHT22;10231;47.702;9.826;2023-12-04T14:02:12;0.30;99.90
20141;DHT22;10231;47.702;9.826;2023-12-04T14:04:38;0.10;99.90
20141;DHT22;10231;47.702;9.826;2023-12-04T14:07:07;0.00;99.90
20141;DHT22;10231;47.702;9.826;2023-12-04T14:09:37;-0.10;99.90
20141;DHT22;10231;47.702;9.826;2023-12-04T14:12:02;-0.10;99.90
20141;DHT22;10231;47.702;9.826;2023-12-04T14:14:28;-0.20;99.90
20141;DHT22;10231;47.702;9.826;2023-12-04T14:16:54;-0.20;99.90
20141;DHT22;10231;47.702;9.826;2023-12-04T14:19:20;-0.20;99.90
20141;DHT22;10231;47.702;9.826;2023-12-04T14:21:46;-0.30;99.90
20141;DHT22;10231;47.702;9.826;2023-12-04T14:24:13;-0.40;99.90
20141;DHT22;10231;47.702;9.826;2023-12-04T14:26:39;-0.40;99.90
20141;DHT22;10231;47.702;9.826;2023-12-04T14:29:05;-0.40;99.90
20141;DHT22;10231;47.702;9.826;2023-12-04T14:31:35;-0.40;99.90
20141;DHT22;10231;47.702;9.826;2023-12-04T14:34:01;-0.40;99.90
20141;DHT22;10231;47.702;9.826;2023-12-04T14:36:28;-0.50;99.90
20141;DHT22;10231;47.702;9.826;2023-12-04T14:38:57;-0.50;99.90
20141;DHT22;10231;47.702;9.826;2023-12-04T14:41:23;-0.50;99.90
20141;DHT22;10231;47.702;9.826;2023-12-04T14:43:48;-0.50;99.90
20141;DHT22;10231;47.702;9.826;2023-12-04T14:46:14;-0.50;99.90
20141;DHT22;10231;47.702;9.826;2023-12-04T14:48:40;-0.50;99.90
20141;DHT22;10231;47.702;9.826;2023-12-04T14:51:07;-0.50;99.90
20141;DHT22;10231;47.702;9.826;2023-12-04T14:53:32;-0.60;99.90
20141;DHT22;10231;47.702;9.826;2023-12-04T14:56:29;-0.50;99.90
20141;DHT22;10231;47.702;9.826;2023-12-04T14:59:00;-0.60;99.90
20141;DHT22;10231;47.702;9.826;2023-12-04T15:01:58;-0.60;99.90
20141;DHT22;10231;47.702;9.826;2023-12-04T15:04:42;-0.70;99.90
20141;DHT22;10231;47.702;9.826;2023-12-04T15:07:27;-0.70;99.90
20141;DHT22;10231;47.702;9.826;2023-12-04T15:10:08;-0.70;99.90
20141;DHT22;10231;47.702;9.826;2023-12-04T15:12:53;-0.70;99.90
20141;DHT22;10231;47.702;9.826;2023-12-04T15:15:37;-0.70;99.90
20141;DHT22;10231;47.702;9.826;2023-12-04T15:18:25;-0.70;99.90
20141;DHT22;10231;47.702;9.826;2023-12-04T15:21:03;-0.70;99.90
20141;DHT22;10231;47.702;9.826;2023-12-04T15:23:29;-0.70;99.90
20141;DHT22;10231;47.702;9.826;2023-12-04T15:25:55;-0.70;99.90
20141;DHT22;10231;47.702;9.826;2023-12-04T15:28:21;-0.70;99.90
20141;DHT22;10231;47.702;9.826;2023-12-04T15:30:48;-0.60;99.90
20141;DHT22;10231;47.702;9.826;2023-12-04T15:33:13;-0.60;99.90
20141;DHT22;10231;47.702;9.826;2023-12-04T15:35:39;-0.70;99.90
20141;DHT22;10231;47.702;9.826;2023-12-04T15:38:04;-0.70;99.90